sensor_id;sensor_type;location;lat;lon;timestamp;temperature;humidity
11474;DHT22;5793;52.238;13.438;2023-03-31T00:01:19;9.80;99.90
11474;DHT22;5793;52.238;13.438;2023-03-31T00:03:47;9.80;99.90
11474;DHT22;5793;52.238;13.438;2023-03-31T00:06:14;9.80;99.90
11474;DHT22;5793;52.238;13.438;2023-03-31T00:08:46;9.70;99.90
11474;DHT22;5793;52.238;13.438;2023-03-31T00:11:18;9.80;99.90
11474;DHT22;5793;52.238;13.438;2023-03-31T00:13:45;9.80;99.90
11474;DHT22;5793;52.238;13.438;2023-03-31T00:16:13;9.70;99.90
11474;DHT22;5793;52.238;13.438;2023-03-31T00:18:41;9.70;99.90
11474;DHT22;5793;52.238;13.438;2023-03-31T00:21:14;9.70;99.90
11474;DHT22;5793;52.238;13.438;2023-03-31T00:23:52;9.70;99.90
11474;DHT22;5793;52.238;13.438;2023-03-31T00:26:20;9.70;99.90
11474;DHT22;5793;52.238;13.438;2023-03-31T00:28:49;9.70;99.90
11474;DHT22;5793;52.238;13.438;2023-03-31T00:31:17;9.60;99.90
11474;DHT22;5793;52.238;13.438;2023-03-31T00:33:45;9.60;99.90
11474;DHT22;5793;52.238;13.438;2023-03-31T00:36:13;9.50;99.90
11474;DHT22;5793;52.238;13.438;2023-03-31T00:38:47;9.50;99.90
11474;DHT22;5793;52.238;13.438;2023-03-31T00:41:16;9.50;99.90
11474;DHT22;5793;52.238;13.438;2023-03-31T00:44:01;9.40;99.90
11474;DHT22;5793;52.238;13.438;2023-03-31T00:46:33;9.30;99.90
11474;DHT22;5793;52.238;13.438;2023-03-31T00:49:06;9.20;99.90
11474;DHT22;5793;52.238;13.438;2023-03-31T00:51:36;9.20;99.90
11474;DHT22;5793;52.238;13.438;2023-03-31T00:54:06;9.20;99.90
11474;DHT22;5793;52.238;13.438;2023-03-31T00:56:39;9.10;99.90
11474;DHT22;5793;52.238;13.438;2023-03-31T00:59:10;9.20;99.90
11474;DHT22;5793;52.238;13.438;2023-03-31T01:01:39;9.10;99.90
11474;DHT22;5793;52.238;13.438;2023-03-31T01:04:10;9.10;99.90
11474;DHT22;5793;52.238;13.438;2023-03-31T01:06:43;9.00;99.90
11474;DHT22;5793;52.238;13.438;2023-03-31T01:09:16;9.00;99.90
11474;DHT22;5793;52.238;13.438;2023-03-31T01:11:45;8.90;99.90
11474;DHT22;5793;52.238;13.438;2023-03-31T01:14:14;8.90;99.90
11474;DHT22;5793;52.238;13.438;2023-03-31T01:16:41;8.80;99.90
11474;DHT22;5793;52.238;13.438;2023-03-31T01:19:15;8.90;99.90
11474;DHT22;5793;52.238;13.438;2023-03-31T01:22:11;8.80;99.90
11474;DHT22;5793;52.238;13.438;2023-03-31T01:28:11;8.70;99.90
11474;DHT22;5793;52.238;13.438;2023-03-31T01:31:30;8.60;99.90
11474;DHT22;5793;52.238;13.438;2023-03-31T01:34:19;8.60;99.90
11474;DHT22;5793;52.238;13.438;2023-03-31T01:37:13;8.70;99.90
11474;DHT22;5793;52.238;13.438;2023-03-31T01:40:12;8.70;99.90
11474;DHT22;5793;52.238;13.438;2023-03-31T01:42:47;8.70;99.90
11474;DHT22;5793;52.238;13.438;2023-03-31T01:45:27;8.80;99.90
11474;DHT22;5793;52.238;13.438;2023-03-31T01:48:02;8.80;99.90
11474;DHT22;5793;52.238;13.438;2023-03-31T01:50:35;8.90;99.90
11474;DHT22;5793;52.238;13.438;2023-03-31T01:53:10;8.90;99.90
11474;DHT22;5793;52.238;13.438;2023-03-31T01:55:48;9.00;99.90
11474;DHT22;5793;52.238;13.438;2023-03-31T01:58:19;9.10;99.90
11474;DHT22;5793;52.238;13.438;2023-03-31T02:00:54;9.10;99.90
11474;DHT22;5793;52.238;13.438;2023-03-31T02:03:27;9.20;99.90
11474;DHT22;5793;52.238;13.438;2023-03-31T02:05:59;9.20;99.90
11474;DHT22;5793;52.238;13.438;2023-03-31T02:08:32;9.20;99.90
11474;DHT22;5793;52.238;13.438;2023-03-31T02:11:04;9.20;99.90
11474;DHT22;5793;52.238;13.438;2023-03-31T02:13:32;9.20;99.90
11474;DHT22;5793;52.238;13.438;2023-03-31T02:16:05;9.20;99.90
11474;DHT22;5793;52.238;13.438;2023-03-31T02:18:36;9.20;99.90
11474;DHT22;5793;52.238;13.438;2023-03-31T02:21:07;9.20;99.90
11474;DHT22;5793;52.238;13.438;2023-03-31T02:23:37;9.20;99.90
11474;DHT22;5793;52.238;13.438;2023-03-31T02:26:10;9.30;99.90
11474;DHT22;5793;52.238;13.438;2023-03-31T02:28:39;9.30;99.90
11474;DHT22;5793;52.238;13.438;2023-03-31T02:31:16;9.40;99.90
11474;DHT22;5793;52.238;13.438;2023-03-31T02:33:48;9.40;99.90
11474;DHT22;5793;52.238;13.438;2023-03-31T02:36:17;9.40;99.90
11474;DHT22;5793;52.238;13.438;2023-03-31T02:38:47;9.30;99.90
11474;DHT22;5793;52.238;13.438;2023-03-31T02:41:18;9.30;99.90
11474;DHT22;5793;52.238;13.438;2023-03-31T02:43:45;9.30;99.90
11474;DHT22;5793;52.238;13.438;2023-03-31T02:46:13;9.30;99.90
11474;DHT22;5793;52.238;13.438;2023-03-31T02:48:44;9.30;99.90
11474;DHT22;5793;52.238;13.438;2023-03-31T02:51:31;9.30;99.90
11474;DHT22;5793;52.238;13.438;2023-03-31T02:54:27;9.40;99.90
11474;DHT22;5793;52.238;13.438;2023-03-31T02:57:25;9.40;99.90
11474;DHT22;5793;52.238;13.438;2023-03-31T03:00:06;9.40;99.90
11474;DHT22;5793;52.238;13.438;2023-03-31T03:02:42;9.40;99.90
11474;DHT22;5793;52.238;13.438;2023-03-31T03:05:21;9.40;99.90
11474;DHT22;5793;52.238;13.438;2023-03-31T03:07:57;9.40;99.90
11474;DHT22;5793;52.238;13.438;2023-03-31T03:10:34;9.40;99.90
11474;DHT22;5793;52.238;13.438;2023-03-31T03:13:12;9.40;99.90
11474;DHT22;5793;52.238;13.438;2023-03-31T03:15:44;9.40;99.90
11474;DHT22;5793;52.238;13.438;2023-03-31T03:18:14;9.40;99.90
11474;DHT22;5793;52.238;13.438;2023-03-31T03:20:42;9.40;99.90
11474;DHT22;5793;52.238;13.438;2023-03-31T03:23:14;9.40;99.90
11474;DHT22;5793;52.238;13.438;2023-03-31T03:25:42;9.40;99.90
11474;DHT22;5793;52.238;13.438;2023-03-31T03:28:11;9.30;99.90
11474;DHT22;5793;52.238;13.438;2023-03-31T03:30:39;9.30;99.90
11474;DHT22;5793;52.238;13.438;2023-03-31T03:33:07;9.30;99.90
11474;DHT22;5793;52.238;13.438;2023-03-31T03:35:35;9.30;99.90
11474;DHT22;5793;52.238;13.438;2023-03-31T03:38:03;9.20;99.90
11474;DHT22;5793;52.238;13.438;2023-03-31T03:40:31;9.30;99.90
11474;DHT22;5793;52.238;13.438;2023-03-31T03:42:58;9.30;99.90
11474;DHT22;5793;52.238;13.438;2023-03-31T03:45:27;9.30;99.90
11474;DHT22;5793;52.238;13.438;2023-03-31T03:47:56;9.20;99.90
11474;DHT22;5793;52.238;13.438;2023-03-31T03:50:23;9.20;99.90
11474;DHT22;5793;52.238;13.438;2023-03-31T03:52:51;9.20;99.90
11474;DHT22;5793;52.238;13.438;2023-03-31T03:55:19;9.10;99.90
11474;DHT22;5793;52.238;13.438;2023-03-31T03:57:47;9.00;99.90
11474;DHT22;5793;52.238;13.438;2023-03-31T04:00:15;8.90;99.90
11474;DHT22;5793;52.238;13.438;2023-03-31T04:02:44;8.90;99.90
11474;DHT22;5793;52.238;13.438;2023-03-31T04:05:12;8.80;99.90
11474;DHT22;5793;52.238;13.438;2023-03-31T04:07:40;8.80;99.90
11474;DHT22;5793;52.238;13.438;2023-03-31T04:10:08;8.70;99.90
11474;DHT22;5793;52.238;13.438;2023-03-31T04:12:36;8.60;99.90
11474;DHT22;5793;52.238;13.438;2023-03-31T04:15:06;8.60;99.90
11474;DHT22;5793;52.238;13.438;2023-03-31T04:17:33;8.70;99.90
11474;DHT22;5793;52.238;13.438;2023-03-31T04:20:05;8.60;99.90
11474;DHT22;5793;52.238;13.438;2023-03-31T04:22:35;8.60;99.90
11474;DHT22;5793;52.238;13.438;2023-03-31T04:25:07;8.60;99.90
11474;DHT22;5793;52.238;13.438;2023-03-31T04:27:40;8.40;99.90
11474;DHT22;5793;52.238;13.438;2023-03-31T04:30:13;8.40;99.90
11474;DHT22;5793;52.238;13.438;2023-03-31T04:32:49;8.30;99.90
11474;DHT22;5793;52.238;13.438;2023-03-31T04:35:20;8.10;99.90
11474;DHT22;5793;52.238;13.438;2023-03-31T04:37:49;8.10;99.90
11474;DHT22;5793;52.238;13.438;2023-03-31T04:40:24;7.90;99.90
11474;DHT22;5793;52.238;13.438;2023-03-31T04:42:52;7.90;99.90
11474;DHT22;5793;52.238;13.438;2023-03-31T04:45:20;7.80;99.90
11474;DHT22;5793;52.238;13.438;2023-03-31T04:47:47;7.90;99.90
11474;DHT22;5793;52.238;13.438;2023-03-31T04:50:15;7.90;99.90
11474;DHT22;5793;52.238;13.438;2023-03-31T04:52:44;7.90;99.90
11474;DHT22;5793;52.238;13.438;2023-03-31T04:55:12;8.00;99.90
11474;DHT22;5793;52.238;13.438;2023-03-31T04:57:40;8.00;99.90
11474;DHT22;5793;52.238;13.438;2023-03-31T05:00:09;8.00;99.90
11474;DHT22;5793;52.238;13.438;2023-03-31T05:02:37;8.10;99.90
11474;DHT22;5793;52.238;13.438;2023-03-31T05:05:05;8.20;99.90
11474;DHT22;5793;52.238;13.438;2023-03-31T05:07:33;8.20;99.90
11474;DHT22;5793;52.238;13.438;2023-03-31T05:10:03;8.30;99.90
11474;DHT22;5793;52.238;13.438;2023-03-31T05:12:33;8.30;99.90
11474;DHT22;5793;52.238;13.438;2023-03-31T05:15:01;8.40;99.90
11474;DHT22;5793;52.238;13.438;2023-03-31T05:17:30;8.40;99.90
11474;DHT22;5793;52.238;13.438;2023-03-31T05:19:58;8.50;99.90
11474;DHT22;5793;52.238;13.438;2023-03-31T05:22:26;8.50;99.90
11474;DHT22;5793;52.238;13.438;2023-03-31T05:24:54;8.60;99.90
11474;DHT22;5793;52.238;13.438;2023-03-31T05:27:23;8.60;99.90
11474;DHT22;5793;52.238;13.438;2023-03-31T05:29:51;8.70;99.90
11474;DHT22;5793;52.238;13.438;2023-03-31T05:32:19;8.70;99.90
11474;DHT22;5793;52.238;13.438;2023-03-31T05:34:47;8.80;99.90
11474;DHT22;5793;52.238;13.438;2023-03-31T05:37:18;8.90;99.90
11474;DHT22;5793;52.238;13.438;2023-03-31T05:39:46;9.00;99.90
11474;DHT22;5793;52.238;13.438;2023-03-31T05:42:14;9.00;99.90
11474;DHT22;5793;52.238;13.438;2023-03-31T05:44:43;9.10;99.90
11474;DHT22;5793;52.238;13.438;2023-03-31T05:47:11;9.20;99.90
11474;DHT22;5793;52.238;13.438;2023-03-31T05:49:39;9.30;99.90
11474;DHT22;5793;52.238;13.438;2023-03-31T05:52:07;9.30;99.90
11474;DHT22;5793;52.238;13.438;2023-03-31T05:54:36;9.30;99.90
11474;DHT22;5793;52.238;13.438;2023-03-31T05:57:04;9.30;99.90
11474;DHT22;5793;52.238;13.438;2023-03-31T05:59:32;9.30;99.90
11474;DHT22;5793;52.238;13.438;2023-03-31T06:02:03;9.20;99.90
11474;DHT22;5793;52.238;13.438;2023-03-31T06:04:31;9.20;99.90
11474;DHT22;5793;52.238;13.438;2023-03-31T06:06:59;9.30;99.90
11474;DHT22;5793;52.238;13.438;2023-03-31T06:09:27;9.30;99.90
11474;DHT22;5793;52.238;13.438;2023-03-31T06:11:55;9.30;99.90
11474;DHT22;5793;52.238;13.438;2023-03-31T06:14:22;9.40;99.90
11474;DHT22;5793;52.238;13.438;2023-03-31T06:16:50;9.50;99.90
11474;DHT22;5793;52.238;13.438;2023-03-31T06:19:19;9.50;99.90
11474;DHT22;5793;52.238;13.438;2023-03-31T06:21:47;9.60;99.90
11474;DHT22;5793;52.238;13.438;2023-03-31T06:24:15;9.60;99.90
11474;DHT22;5793;52.238;13.438;2023-03-31T06:26:43;9.60;99.90
11474;DHT22;5793;52.238;13.438;2023-03-31T06:29:10;9.70;99.90
11474;DHT22;5793;52.238;13.438;2023-03-31T06:31:38;9.80;99.90
11474;DHT22;5793;52.238;13.438;2023-03-31T06:34:06;9.90;99.90
11474;DHT22;5793;52.238;13.438;2023-03-31T06:36:36;10.00;99.90
11474;DHT22;5793;52.238;13.438;2023-03-31T06:39:04;10.10;99.90
11474;DHT22;5793;52.238;13.438;2023-03-31T06:41:32;10.20;99.90
11474;DHT22;5793;52.238;13.438;2023-03-31T06:43:59;10.40;99.90
11474;DHT22;5793;52.238;13.438;2023-03-31T06:46:27;10.50;99.90
11474;DHT22;5793;52.238;13.438;2023-03-31T06:48:55;10.60;99.90
11474;DHT22;5793;52.238;13.438;2023-03-31T06:51:23;10.80;99.90
11474;DHT22;5793;52.238;13.438;2023-03-31T06:53:52;10.90;99.90
11474;DHT22;5793;52.238;13.438;2023-03-31T06:56:20;11.00;99.90
11474;DHT22;5793;52.238;13.438;2023-03-31T06:58:47;11.00;99.90
11474;DHT22;5793;52.238;13.438;2023-03-31T07:01:15;11.10;99.90
11474;DHT22;5793;52.238;13.438;2023-03-31T07:03:43;11.20;99.90
11474;DHT22;5793;52.238;13.438;2023-03-31T07:06:11;11.40;99.90
11474;DHT22;5793;52.238;13.438;2023-03-31T07:08:38;11.50;99.90
11474;DHT22;5793;52.238;13.438;2023-03-31T07:11:08;11.70;99.90
11474;DHT22;5793;52.238;13.438;2023-03-31T07:13:36;11.90;99.90
11474;DHT22;5793;52.238;13.438;2023-03-31T07:16:04;12.20;99.90
11474;DHT22;5793;52.238;13.438;2023-03-31T07:18:33;12.30;99.90
11474;DHT22;5793;52.238;13.438;2023-03-31T07:21:03;12.40;99.90
11474;DHT22;5793;52.238;13.438;2023-03-31T07:23:36;12.40;99.90
11474;DHT22;5793;52.238;13.438;2023-03-31T07:26:04;12.50;99.90
11474;DHT22;5793;52.238;13.438;2023-03-31T07:28:34;12.50;99.90
11474;DHT22;5793;52.238;13.438;2023-03-31T07:31:02;12.50;99.90
11474;DHT22;5793;52.238;13.438;2023-03-31T07:33:30;12.70;99.90
11474;DHT22;5793;52.238;13.438;2023-03-31T07:35:58;12.70;99.90
11474;DHT22;5793;52.238;13.438;2023-03-31T07:38:37;12.80;99.90
11474;DHT22;5793;52.238;13.438;2023-03-31T07:41:08;13.00;99.90
11474;DHT22;5793;52.238;13.438;2023-03-31T07:43:38;13.10;99.90
11474;DHT22;5793;52.238;13.438;2023-03-31T07:46:06;13.40;99.90
11474;DHT22;5793;52.238;13.438;2023-03-31T07:48:39;13.70;99.90
11474;DHT22;5793;52.238;13.438;2023-03-31T07:51:07;14.10;99.90
11474;DHT22;5793;52.238;13.438;2023-03-31T07:53:35;14.30;99.90
11474;DHT22;5793;52.238;13.438;2023-03-31T07:56:03;14.60;99.90
11474;DHT22;5793;52.238;13.438;2023-03-31T07:58:31;14.60;99.90
11474;DHT22;5793;52.238;13.438;2023-03-31T08:01:01;14.50;99.90
11474;DHT22;5793;52.238;13.438;2023-03-31T08:03:29;14.30;99.90
11474;DHT22;5793;52.238;13.438;2023-03-31T08:05:57;14.40;99.90
11474;DHT22;5793;52.238;13.438;2023-03-31T08:08:25;14.70;99.90
11474;DHT22;5793;52.238;13.438;2023-03-31T08:10:53;15.20;99.90
11474;DHT22;5793;52.238;13.438;2023-03-31T08:13:21;15.80;99.90
11474;DHT22;5793;52.238;13.438;2023-03-31T08:15:48;16.60;99.90
11474;DHT22;5793;52.238;13.438;2023-03-31T08:18:17;16.90;99.90
11474;DHT22;5793;52.238;13.438;2023-03-31T08:20:45;16.60;99.90
11474;DHT22;5793;52.238;13.438;2023-03-31T08:23:15;16.20;99.90
11474;DHT22;5793;52.238;13.438;2023-03-31T08:25:43;15.80;99.90
11474;DHT22;5793;52.238;13.438;2023-03-31T08:28:11;15.40;99.90
11474;DHT22;5793;52.238;13.438;2023-03-31T08:30:39;14.90;99.90
11474;DHT22;5793;52.238;13.438;2023-03-31T08:33:08;14.50;99.90
11474;DHT22;5793;52.238;13.438;2023-03-31T08:35:39;14.40;99.90
11474;DHT22;5793;52.238;13.438;2023-03-31T08:38:07;14.30;99.90
11474;DHT22;5793;52.238;13.438;2023-03-31T08:40:34;14.30;99.90
11474;DHT22;5793;52.238;13.438;2023-03-31T08:43:11;14.70;99.90
11474;DHT22;5793;52.238;13.438;2023-03-31T08:45:45;15.40;99.90
11474;DHT22;5793;52.238;13.438;2023-03-31T08:48:19;16.70;99.90
11474;DHT22;5793;52.238;13.438;2023-03-31T08:50:56;19.70;99.90
11474;DHT22;5793;52.238;13.438;2023-03-31T08:53:28;21.60;99.90
11474;DHT22;5793;52.238;13.438;2023-03-31T08:55:57;22.90;96.60
11474;DHT22;5793;52.238;13.438;2023-03-31T08:58:33;21.10;99.90
11474;DHT22;5793;52.238;13.438;2023-03-31T09:01:07;20.20;99.90
11474;DHT22;5793;52.238;13.438;2023-03-31T09:03:45;19.80;99.90
11474;DHT22;5793;52.238;13.438;2023-03-31T09:06:19;19.30;99.90
11474;DHT22;5793;52.238;13.438;2023-03-31T09:08:49;19.00;99.90
11474;DHT22;5793;52.238;13.438;2023-03-31T09:11:24;19.20;99.90
11474;DHT22;5793;52.238;13.438;2023-03-31T09:14:09;19.80;99.90
11474;DHT22;5793;52.238;13.438;2023-03-31T09:16:42;18.10;99.90
11474;DHT22;5793;52.238;13.438;2023-03-31T09:19:17;16.80;99.90
11474;DHT22;5793;52.238;13.438;2023-03-31T09:21:49;15.60;99.90
11474;DHT22;5793;52.238;13.438;2023-03-31T09:24:21;15.00;99.90
11474;DHT22;5793;52.238;13.438;2023-03-31T09:26:52;14.80;99.90
11474;DHT22;5793;52.238;13.438;2023-03-31T09:29:23;14.80;99.90
11474;DHT22;5793;52.238;13.438;2023-03-31T09:32:00;15.00;99.90
11474;DHT22;5793;52.238;13.438;2023-03-31T09:34:30;15.10;99.90
11474;DHT22;5793;52.238;13.438;2023-03-31T09:36:59;14.70;99.90
11474;DHT22;5793;52.238;13.438;2023-03-31T09:39:27;14.30;99.90
11474;DHT22;5793;52.238;13.438;2023-03-31T09:41:55;14.00;99.90
11474;DHT22;5793;52.238;13.438;2023-03-31T09:44:34;14.00;99.90
11474;DHT22;5793;52.238;13.438;2023-03-31T09:47:04;14.20;99.90
11474;DHT22;5793;52.238;13.438;2023-03-31T09:49:37;14.30;99.90
11474;DHT22;5793;52.238;13.438;2023-03-31T09:52:26;14.40;99.90
11474;DHT22;5793;52.238;13.438;2023-03-31T09:54:59;14.60;99.90
11474;DHT22;5793;52.238;13.438;2023-03-31T09:57:31;14.80;99.90
11474;DHT22;5793;52.238;13.438;2023-03-31T10:00:05;14.70;99.90
11474;DHT22;5793;52.238;13.438;2023-03-31T10:02:43;14.70;99.90
11474;DHT22;5793;52.238;13.438;2023-03-31T10:05:26;14.70;99.90
11474;DHT22;5793;52.238;13.438;2023-03-31T10:08:20;14.90;99.90
11474;DHT22;5793;52.238;13.438;2023-03-31T10:10:50;15.00;99.90
11474;DHT22;5793;52.238;13.438;2023-03-31T10:13:22;15.30;99.90
11474;DHT22;5793;52.238;13.438;2023-03-31T10:15:54;16.10;99.90
11474;DHT22;5793;52.238;13.438;2023-03-31T10:18:32;16.30;99.90
11474;DHT22;5793;52.238;13.438;2023-03-31T10:21:02;17.00;99.90
11474;DHT22;5793;52.238;13.438;2023-03-31T10:23:33;17.20;99.90
11474;DHT22;5793;52.238;13.438;2023-03-31T10:26:02;17.20;99.90
11474;DHT22;5793;52.238;13.438;2023-03-31T10:28:33;16.80;99.90
11474;DHT22;5793;52.238;13.438;2023-03-31T10:31:02;16.30;99.90
11474;DHT22;5793;52.238;13.438;2023-03-31T10:33:31;15.80;99.90
11474;DHT22;5793;52.238;13.438;2023-03-31T10:36:02;15.50;99.90
11474;DHT22;5793;52.238;13.438;2023-03-31T10:38:37;15.00;99.90
11474;DHT22;5793;52.238;13.438;2023-03-31T10:41:08;14.50;99.90
11474;DHT22;5793;52.238;13.438;2023-03-31T10:43:39;14.10;99.90
11474;DHT22;5793;52.238;13.438;2023-03-31T10:46:08;14.00;99.90
11474;DHT22;5793;52.238;13.438;2023-03-31T10:48:37;14.00;99.90
11474;DHT22;5793;52.238;13.438;2023-03-31T10:51:11;14.40;99.90
11474;DHT22;5793;52.238;13.438;2023-03-31T10:53:43;15.20;99.90
11474;DHT22;5793;52.238;13.438;2023-03-31T10:56:33;16.30;99.90
11474;DHT22;5793;52.238;13.438;2023-03-31T10:59:13;16.70;99.90
11474;DHT22;5793;52.238;13.438;2023-03-31T11:01:55;16.20;99.90
11474;DHT22;5793;52.238;13.438;2023-03-31T11:04:39;15.70;99.90
11474;DHT22;5793;52.238;13.438;2023-03-31T11:07:16;15.60;99.90
11474;DHT22;5793;52.238;13.438;2023-03-31T11:09:54;16.10;99.90
11474;DHT22;5793;52.238;13.438;2023-03-31T11:12:27;16.30;99.90
11474;DHT22;5793;52.238;13.438;2023-03-31T11:15:07;16.20;99.90
11474;DHT22;5793;52.238;13.438;2023-03-31T11:17:59;16.20;99.90
11474;DHT22;5793;52.238;13.438;2023-03-31T11:20:35;16.30;99.90
11474;DHT22;5793;52.238;13.438;2023-03-31T11:23:13;16.20;99.90
11474;DHT22;5793;52.238;13.438;2023-03-31T11:25:49;16.20;99.90
11474;DHT22;5793;52.238;13.438;2023-03-31T11:28:35;15.90;99.90
11474;DHT22;5793;52.238;13.438;2023-03-31T11:31:21;15.80;99.90
11474;DHT22;5793;52.238;13.438;2023-03-31T11:34:11;15.60;99.90
11474;DHT22;5793;52.238;13.438;2023-03-31T11:36:57;15.10;99.90
11474;DHT22;5793;52.238;13.438;2023-03-31T11:39:35;14.60;99.90
11474;DHT22;5793;52.238;13.438;2023-03-31T11:42:15;14.50;99.90
11474;DHT22;5793;52.238;13.438;2023-03-31T11:44:48;14.50;99.90
11474;DHT22;5793;52.238;13.438;2023-03-31T11:47:21;14.60;99.90
11474;DHT22;5793;52.238;13.438;2023-03-31T11:49:53;14.40;99.90
11474;DHT22;5793;52.238;13.438;2023-03-31T11:52:26;14.70;99.90
11474;DHT22;5793;52.238;13.438;2023-03-31T11:54:58;14.90;99.90
11474;DHT22;5793;52.238;13.438;2023-03-31T11:57:34;15.00;99.90
11474;DHT22;5793;52.238;13.438;2023-03-31T12:00:08;14.90;99.90
11474;DHT22;5793;52.238;13.438;2023-03-31T12:02:45;14.60;99.90
11474;DHT22;5793;52.238;13.438;2023-03-31T12:05:16;14.00;99.90
11474;DHT22;5793;52.238;13.438;2023-03-31T12:07:49;13.30;99.90
11474;DHT22;5793;52.238;13.438;2023-03-31T12:10:21;13.20;99.90
11474;DHT22;5793;52.238;13.438;2023-03-31T12:12:55;13.00;99.90
11474;DHT22;5793;52.238;13.438;2023-03-31T12:15:31;13.00;99.90
11474;DHT22;5793;52.238;13.438;2023-03-31T12:18:07;13.20;99.90
11474;DHT22;5793;52.238;13.438;2023-03-31T12:20:39;13.30;99.90
11474;DHT22;5793;52.238;13.438;2023-03-31T12:23:12;13.40;99.90
11474;DHT22;5793;52.238;13.438;2023-03-31T12:25:50;13.40;99.90
11474;DHT22;5793;52.238;13.438;2023-03-31T12:28:21;13.40;99.90
11474;DHT22;5793;52.238;13.438;2023-03-31T12:30:50;13.30;99.90
11474;DHT22;5793;52.238;13.438;2023-03-31T12:33:23;13.10;99.90
11474;DHT22;5793;52.238;13.438;2023-03-31T12:36:03;13.00;99.90
11474;DHT22;5793;52.238;13.438;2023-03-31T12:38:44;13.00;99.90
11474;DHT22;5793;52.238;13.438;2023-03-31T12:41:16;12.90;99.90
11474;DHT22;5793;52.238;13.438;2023-03-31T12:44:05;12.90;99.90
11474;DHT22;5793;52.238;13.438;2023-03-31T12:46:46;12.90;99.90
11474;DHT22;5793;52.238;13.438;2023-03-31T12:49:32;12.70;99.90
11474;DHT22;5793;52.238;13.438;2023-03-31T12:52:05;12.60;99.90
11474;DHT22;5793;52.238;13.438;2023-03-31T12:57:29;12.20;99.90
11474;DHT22;5793;52.238;13.438;2023-03-31T13:00:19;12.10;99.90
11474;DHT22;5793;52.238;13.438;2023-03-31T13:02:48;12.00;99.90
11474;DHT22;5793;52.238;13.438;2023-03-31T13:05:45;11.90;99.90
11474;DHT22;5793;52.238;13.438;2023-03-31T13:08:48;11.90;99.90
11474;DHT22;5793;52.238;13.438;2023-03-31T13:11:17;11.90;99.90
11474;DHT22;5793;52.238;13.438;2023-03-31T13:13:54;11.90;99.90
11474;DHT22;5793;52.238;13.438;2023-03-31T13:16:28;11.90;99.90
11474;DHT22;5793;52.238;13.438;2023-03-31T13:18:56;11.90;99.90
11474;DHT22;5793;52.238;13.438;2023-03-31T13:21:24;11.80;99.90
11474;DHT22;5793;52.238;13.438;2023-03-31T13:23:52;11.70;99.90
11474;DHT22;5793;52.238;13.438;2023-03-31T13:26:36;11.70;99.90
11474;DHT22;5793;52.238;13.438;2023-03-31T13:29:42;11.60;99.90
11474;DHT22;5793;52.238;13.438;2023-03-31T13:32:20;11.40;99.90
11474;DHT22;5793;52.238;13.438;2023-03-31T13:34:53;11.40;99.90
11474;DHT22;5793;52.238;13.438;2023-03-31T13:40:47;11.20;99.90
11474;DHT22;5793;52.238;13.438;2023-03-31T13:43:43;11.10;99.90
11474;DHT22;5793;52.238;13.438;2023-03-31T13:49:10;11.20;99.90
11474;DHT22;5793;52.238;13.438;2023-03-31T13:51:50;11.10;99.90
11474;DHT22;5793;52.238;13.438;2023-03-31T13:54:47;11.00;99.90
11474;DHT22;5793;52.238;13.438;2023-03-31T13:57:42;10.90;99.90
11474;DHT22;5793;52.238;13.438;2023-03-31T14:00:25;10.80;99.90
11474;DHT22;5793;52.238;13.438;2023-03-31T14:03:05;10.80;99.90
11474;DHT22;5793;52.238;13.438;2023-03-31T14:05:41;10.90;99.90
11474;DHT22;5793;52.238;13.438;2023-03-31T14:08:13;10.90;99.90
11474;DHT22;5793;52.238;13.438;2023-03-31T14:10:42;10.90;99.90
11474;DHT22;5793;52.238;13.438;2023-03-31T14:13:11;10.90;99.90
11474;DHT22;5793;52.238;13.438;2023-03-31T14:15:46;10.90;99.90
11474;DHT22;5793;52.238;13.438;2023-03-31T14:18:19;10.90;99.90
11474;DHT22;5793;52.238;13.438;2023-03-31T14:20:55;10.80;99.90
11474;DHT22;5793;52.238;13.438;2023-03-31T14:23:33;10.80;99.90
11474;DHT22;5793;52.238;13.438;2023-03-31T14:26:05;10.90;99.90
11474;DHT22;5793;52.238;13.438;2023-03-31T14:28:49;10.80;99.90
11474;DHT22;5793;52.238;13.438;2023-03-31T14:31:27;10.90;99.90
11474;DHT22;5793;52.238;13.438;2023-03-31T14:34:14;10.90;99.90
11474;DHT22;5793;52.238;13.438;2023-03-31T14:36:51;10.90;99.90
11474;DHT22;5793;52.238;13.438;2023-03-31T14:39:26;10.90;99.90
11474;DHT22;5793;52.238;13.438;2023-03-31T14:41:58;11.10;99.90
11474;DHT22;5793;52.238;13.438;2023-03-31T14:44:27;11.00;99.90
11474;DHT22;5793;52.238;13.438;2023-03-31T14:46:56;11.00;99.90
11474;DHT22;5793;52.238;13.438;2023-03-31T14:49:26;11.00;99.90
11474;DHT22;5793;52.238;13.438;2023-03-31T14:52:00;11.00;99.90
11474;DHT22;5793;52.238;13.438;2023-03-31T14:54:33;10.90;99.90
11474;DHT22;5793;52.238;13.438;2023-03-31T14:57:04;10.90;99.90
11474;DHT22;5793;52.238;13.438;2023-03-31T14:59:33;10.90;99.90
11474;DHT22;5793;52.238;13.438;2023-03-31T15:02:06;10.80;99.90
11474;DHT22;5793;52.238;13.438;2023-03-31T15:04:40;10.90;99.90
11474;DHT22;5793;52.238;13.438;2023-03-31T15:07:12;10.90;99.90
11474;DHT22;5793;52.238;13.438;2023-03-31T15:09:43;10.90;99.90
11474;DHT22;5793;52.238;13.438;2023-03-31T15:12:16;10.90;99.90
11474;DHT22;5793;52.238;13.438;2023-03-31T15:14:47;10.90;99.90
11474;DHT22;5793;52.238;13.438;2023-03-31T15:17:20;10.80;99.90
11474;DHT22;5793;52.238;13.438;2023-03-31T15:19:56;10.80;99.90
11474;DHT22;5793;52.238;13.438;2023-03-31T15:22:28;10.80;99.90
11474;DHT22;5793;52.238;13.438;2023-03-31T15:24:56;10.80;99.90
11474;DHT22;5793;52.238;13.438;2023-03-31T15:27:31;10.80;99.90
11474;DHT22;5793;52.238;13.438;2023-03-31T15:30:21;10.90;99.90
11474;DHT22;5793;52.238;13.438;2023-03-31T15:32:50;10.80;99.90
11474;DHT22;5793;52.238;13.438;2023-03-31T15:35:29;10.80;99.90
11474;DHT22;5793;52.238;13.438;2023-03-31T15:38:14;10.80;99.90
11474;DHT22;5793;52.238;13.438;2023-03-31T15:40:46;10.80;99.90
11474;DHT22;5793;52.238;13.438;2023-03-31T15:43:17;10.90;99.90
11474;DHT22;5793;52.238;13.438;2023-03-31T15:45:53;10.90;99.90
11474;DHT22;5793;52.238;13.438;2023-03-31T15:48:22;11.00;99.90
11474;DHT22;5793;52.238;13.438;2023-03-31T15:50:58;10.90;99.90
11474;DHT22;5793;52.238;13.438;2023-03-31T15:53:35;11.00;99.90
11474;DHT22;5793;52.238;13.438;2023-03-31T15:56:04;10.90;99.90
11474;DHT22;5793;52.238;13.438;2023-03-31T15:58:47;10.90;99.90
11474;DHT22;5793;52.238;13.438;2023-03-31T16:01:19;10.80;99.90
11474;DHT22;5793;52.238;13.438;2023-03-31T16:03:47;10.80;99.90
11474;DHT22;5793;52.238;13.438;2023-03-31T16:06:20;10.90;99.90
11474;DHT22;5793;52.238;13.438;2023-03-31T16:08:54;10.90;99.90
11474;DHT22;5793;52.238;13.438;2023-03-31T16:11:26;11.00;99.90
11474;DHT22;5793;52.238;13.438;2023-03-31T16:13:56;10.90;99.90
11474;DHT22;5793;52.238;13.438;2023-03-31T16:16:27;10.90;99.90
11474;DHT22;5793;52.238;13.438;2023-03-31T16:19:01;10.80;99.90
11474;DHT22;5793;52.238;13.438;2023-03-31T16:21:34;10.80;99.90
11474;DHT22;5793;52.238;13.438;2023-03-31T16:24:05;10.80;99.90
11474;DHT22;5793;52.238;13.438;2023-03-31T16:26:33;10.80;99.90